Time,TemperatureF,DewpointF,PressureIn,WindDirection,WindDirectionDegrees,WindSpeedMPH,WindSpeedGustMPH,Humidity,HourlyPrecipIn,Conditions,Clouds,dailyrainin,SolarRadiationWatts/m^2,SoftwareType,DateUTC
2013-10-10 00:14:00,48.8,32.5,29.97,SSE,165,0.0,0.0,53,0.00,CLR,SKC,0.00,0.0,WeatherDisplay:10.37,2013-10-10 06:14:00,
2013-10-10 00:44:00,47.9,32.5,29.98,SSE,165,1.0,3.0,55,0.00,CLR,SKC,0.00,0.0,WeatherDisplay:10.37,2013-10-10 06:44:00,
2013-10-10 01:14:00,50.5,33.0,30.00,SSW,201,2.0,17.0,51,0.00,CLR,SKC,0.00,0.0,WeatherDisplay:10.37,2013-10-10 07:14:00,
2013-10-10 01:44:00,48.3,36.3,30.01,SSW,206,0.0,3.0,63,0.00,CLR,SKC,0.00,0.0,WeatherDisplay:10.37,2013-10-10 07:44:00,
2013-10-10 02:14:00,44.7,38.3,30.00,South,178,0.0,4.0,78,0.00,CLR,SKC,0.00,0.0,WeatherDisplay:10.37,2013-10-10 08:14:00,
2013-10-10 02:44:00,44.3,39.2,29.97,NNE,15,5.0,7.0,82,0.00,CLR,SKC,0.00,0.0,WeatherDisplay:10.37,2013-10-10 08:44:00,
2013-10-10 03:14:00,44.3,38.8,29.95,North,356,7.0,10.0,81,0.00,CLR,SKC,0.00,0.0,WeatherDisplay:10.37,2013-10-10 09:14:00,
2013-10-10 03:44:00,43.3,38.5,29.95,NNW,328,1.0,5.0,83,0.00,CLR,SKC,0.00,0.0,WeatherDisplay:10.37,2013-10-10 09:44:00,
2013-10-10 04:14:00,43.1,38.3,29.94,WNW,302,0.0,3.0,83,0.00,CLR,SKC,0.00,0.0,WeatherDisplay:10.37,2013-10-10 10:14:00,
2013-10-10 04:44:00,43.3,38.5,29.94,SSE,153,1.0,4.0,83,0.00,CLR,SKC,0.00,0.0,WeatherDisplay:10.37,2013-10-10 10:44:00,
2013-10-10 05:14:00,43.1,38.0,29.94,SSW,201,0.0,2.0,82,0.00,CLR,SKC,0.00,0.0,WeatherDisplay:10.37,2013-10-10 11:14:00,
2013-10-10 05:44:00,42.9,37.8,29.95,SW,219,0.0,1.0,82,0.00,CLR,SKC,0.00,0.0,WeatherDisplay:10.37,2013-10-10 11:44:00,
2013-10-10 06:14:00,42.6,37.8,29.95,SW,234,0.0,1.0,83,0.00,CLR,SKC,0.00,0.0,WeatherDisplay:10.37,2013-10-10 12:14:00,
2013-10-10 06:44:00,42.8,38.0,29.94,SSE,153,0.0,3.0,83,0.00,CLR,SKC,0.00,0.0,WeatherDisplay:10.37,2013-10-10 12:44:00,
2013-10-10 07:14:00,42.5,37.7,29.94,East,92,0.0,1.0,83,0.00,OVC,SKC,0.00,0.0,WeatherDisplay:10.37,2013-10-10 13:14:00,
2013-10-10 07:44:00,42.6,37.2,29.93,ESE,113,0.0,1.0,81,0.00,OVC,SKC,0.00,9.0,WeatherDisplay:10.37,2013-10-10 13:44:00,
2013-10-10 08:14:00,41.5,37.3,29.93,ESE,108,0.0,2.0,85,0.00,CLR,SKC,0.00,28.0,WeatherDisplay:10.37,2013-10-10 14:14:00,
2013-10-10 08:44:00,40.2,36.3,29.93,SW,235,0.0,1.0,86,0.00,BKN,SKC,0.00,33.0,WeatherDisplay:10.37,2013-10-10 14:44:00,
2013-10-10 09:14:00,40.5,36.6,29.94,SW,235,0.0,1.0,86,0.00,BKN,SKC,0.00,47.0,WeatherDisplay:10.37,2013-10-10 15:14:00,
2013-10-10 09:44:00,40.7,37.1,29.94,SW,235,0.0,1.0,87,0.00,BKN,SKC,0.00,120.0,WeatherDisplay:10.37,2013-10-10 15:44:00,
2013-10-10 10:14:00,43.6,38.2,29.94,ESE,123,0.0,2.0,81,0.00,FEW,SKC,0.00,265.0,WeatherDisplay:10.37,2013-10-10 16:14:00,
2013-10-10 10:44:00,45.8,37.6,29.95,ESE,110,1.0,5.0,73,0.00,FEW,SKC,0.00,301.0,WeatherDisplay:10.37,2013-10-10 16:44:00,
2013-10-10 11:14:00,47.9,37.5,29.95,WSW,241,2.0,5.0,67,0.00,SCT,SKC,0.00,297.0,WeatherDisplay:10.37,2013-10-10 17:14:00,
2013-10-10 11:44:00,49.1,37.8,29.97,WSW,255,5.0,8.0,65,0.00,CLR,SKC,0.00,350.0,WeatherDisplay:10.37,2013-10-10 17:44:00,
2013-10-10 12:14:00,48.9,37.3,29.97,West,263,2.0,9.0,64,0.00,SCT,SKC,0.00,448.0,WeatherDisplay:10.37,2013-10-10 18:14:00,
2013-10-10 12:44:00,49.6,36.7,29.97,West,267,6.0,8.0,61,0.00,BKN,SKC,0.00,276.0,WeatherDisplay:10.37,2013-10-10 18:44:00,
2013-10-10 13:14:00,47.9,33.8,29.97,WSW,253,6.0,12.0,58,0.00,BKN,SKC,0.00,113.0,WeatherDisplay:10.37,2013-10-10 19:14:00,
2013-10-10 13:44:00,48.4,36.4,29.97,WSW,252,1.0,4.0,63,0.00,BKN,SKC,0.00,229.0,WeatherDisplay:10.37,2013-10-10 19:44:00,
2013-10-10 14:14:00,47.5,36.3,29.97,SSE,153,3.0,8.0,65,0.00,SCT,SKC,0.00,299.0,WeatherDisplay:10.37,2013-10-10 20:14:00,
2013-10-10 14:44:00,46.3,36.7,29.98,SSE,156,5.0,7.0,69,0.00,BKN,SKC,0.00,121.0,WeatherDisplay:10.37,2013-10-10 20:44:00,
2013-10-10 15:14:00,45.0,38.9,29.99,South,179,1.0,4.0,79,0.01,RA,SKC,0.01,271.0,WeatherDisplay:10.37,2013-10-10 21:14:00,
2013-10-10 15:44:00,47.9,38.2,30.00,SSE,156,2.0,7.0,69,0.00,BKN,SKC,0.02,176.0,WeatherDisplay:10.37,2013-10-10 21:44:00,
2013-10-10 16:14:00,48.0,37.9,30.01,South,188,3.0,7.0,68,0.00,BKN,SKC,0.02,93.0,WeatherDisplay:10.37,2013-10-10 22:14:00,
2013-10-10 16:45:00,45.0,37.6,30.03,NW,308,6.0,12.0,75,0.00,RA,SKC,0.03,88.0,WeatherDisplay:10.37,2013-10-10 22:45:00,
2013-10-10 17:15:00,44.6,37.9,30.05,WNW,294,1.0,9.0,77,0.00,BKN,SKC,0.04,37.0,WeatherDisplay:10.37,2013-10-10 23:15:00,
2013-10-10 17:45:00,45.8,37.6,30.06,West,265,2.0,6.0,73,0.00,BKN,SKC,0.04,19.0,WeatherDisplay:10.37,2013-10-10 23:45:00,
2013-10-10 18:15:00,44.6,37.2,30.08,WSW,257,1.0,6.0,75,0.00,BKN,SKC,0.04,11.0,WeatherDisplay:10.37,2013-10-11 00:15:00,
2013-10-10 18:45:00,43.6,37.8,30.09,SW,215,2.0,7.0,80,0.01,RA,SKC,0.05,0.0,WeatherDisplay:10.37,2013-10-11 00:45:00,
2013-10-10 19:15:00,41.1,37.2,30.11,SSW,194,7.0,14.0,86,0.00,RA,SKC,0.07,0.0,WeatherDisplay:10.37,2013-10-11 01:15:00,
2013-10-10 19:45:00,40.4,37.2,30.13,SSW,196,6.0,14.0,88,0.00,RA,SKC,0.09,0.0,WeatherDisplay:10.37,2013-10-11 01:45:00,
2013-10-10 20:15:00,40.6,37.3,30.14,SSW,192,1.0,9.0,88,0.00,CLR,SKC,0.10,0.0,WeatherDisplay:10.37,2013-10-11 02:15:00,
2013-10-10 20:45:00,40.6,37.6,30.16,SSW,198,1.0,6.0,89,0.01,RA,SKC,0.12,0.0,WeatherDisplay:10.37,2013-10-11 02:45:00,
2013-10-10 21:15:00,40.5,37.5,30.18,SSW,194,0.0,6.0,89,0.01,RA,SKC,0.13,0.0,WeatherDisplay:10.37,2013-10-11 03:15:00,
2013-10-10 21:44:00,40.4,37.7,30.20,SSW,212,0.0,1.0,90,0.00,CLR,SKC,0.13,0.0,WeatherDisplay:10.37,2013-10-11 03:44:00,
2013-10-10 22:14:00,40.4,38.0,30.22,SW,215,0.0,1.0,91,0.01,RA,SKC,0.15,0.0,WeatherDisplay:10.37,2013-10-11 04:14:00,
2013-10-10 22:44:00,40.7,38.6,30.23,SSW,202,1.0,3.0,92,0.01,RA,SKC,0.16,0.0,WeatherDisplay:10.37,2013-10-11 04:44:00,
2013-10-10 23:14:00,41.4,39.3,30.23,SSW,202,1.0,3.0,92,0.00,RA,SKC,0.17,0.0,WeatherDisplay:10.37,2013-10-11 05:14:00,